Time;durP1;ratioP1;P1;durP2;ratioP2;P2;SDS_P1;SDS_P2;PMS_P1;PMS_P2;Temp;Humidity;BMP_temperature;BMP_pressure;BME280_temperature;BME280_humidity;BME280_pressure;Samples;Min_cycle;Max_cycle;Signal;HPM_P1;HPM_P2
2023/06/19 00:01:57;;;;;;;;;;;21.80;91.40;;;;;;5046032;28;19988;-73
2023/06/19 00:04:26;;;;;;;;;;;21.70;91.40;;;;;;5046226;28;20205;-72
2023/06/19 00:06:52;;;;;;;;;;;21.70;91.70;;;;;;5046418;28;19993;-73
2023/06/19 00:09:19;;;;;;;;;;;21.60;91.80;;;;;;5046476;28;20105;-72
2023/06/19 00:11:46;;;;;;;;;;;21.50;91.90;;;;;;5045386;28;19980;-73
2023/06/19 00:14:12;;;;;;;;;;;21.50;92.20;;;;;;5046045;28;19920;-72
2023/06/19 00:16:40;;;;;;;;;;;21.50;92.50;;;;;;5046037;28;20216;-72
2023/06/19 00:19:08;;;;;;;;;;;21.40;92.60;;;;;;5045671;28;20401;-72
2023/06/19 00:21:37;;;;;;;;;;;21.40;92.80;;;;;;5045365;28;20272;-72
2023/06/19 00:24:04;;;;;;;;;;;21.30;92.90;;;;;;5046277;28;19928;-72
2023/06/19 00:26:30;;;;;;;;;;;21.30;93.30;;;;;;5046095;28;19984;-72
2023/06/19 00:28:58;;;;;;;;;;;21.20;93.40;;;;;;5046251;28;19952;-72
2023/06/19 00:31:26;;;;;;;;;;;21.20;93.60;;;;;;5045392;28;19964;-72
2023/06/19 00:33:52;;;;;;;;;;;21.20;93.70;;;;;;5045689;28;19952;-73
2023/06/19 00:36:23;;;;;;;;;;;21.10;93.90;;;;;;5040346;28;20212;-73
2023/06/19 00:38:51;;;;;;;;;;;21.10;94.00;;;;;;5045921;28;19928;-73
2023/06/19 00:41:17;;;;;;;;;;;21.00;93.90;;;;;;5044993;28;20112;-72
2023/06/19 00:43:44;;;;;;;;;;;21.00;93.80;;;;;;5045691;28;19928;-73
2023/06/19 00:46:11;;;;;;;;;;;21.00;93.70;;;;;;5045702;28;20053;-73
2023/06/19 00:48:38;;;;;;;;;;;21.00;93.70;;;;;;5045759;28;19927;-72
2023/06/19 00:51:05;;;;;;;;;;;21.00;93.00;;;;;;5044698;28;20288;-72
2023/06/19 00:53:33;;;;;;;;;;;21.00;93.30;;;;;;5045773;28;20120;-72
2023/06/19 00:56:01;;;;;;;;;;;20.90;93.20;;;;;;5045522;28;19943;-72
2023/06/19 00:58:28;;;;;;;;;;;20.80;93.40;;;;;;5045717;28;19928;-73
2023/06/19 01:00:54;;;;;;;;;;;20.70;93.80;;;;;;5044708;28;19957;-72
2023/06/19 01:03:21;;;;;;;;;;;20.60;94.50;;;;;;5045291;28;19964;-73
2023/06/19 01:05:48;;;;;;;;;;;20.50;94.90;;;;;;5045252;28;20108;-72
2023/06/19 01:08:22;;;;;;;;;;;20.40;95.10;;;;;;5045149;28;19996;-72
2023/06/19 01:10:51;;;;;;;;;;;20.30;95.30;;;;;;5044570;28;19984;-72
2023/06/19 01:13:22;;;;;;;;;;;20.30;95.60;;;;;;5045008;28;19928;-72
2023/06/19 01:15:49;;;;;;;;;;;20.30;95.90;;;;;;5025326;28;19921;-73
2023/06/19 01:18:16;;;;;;;;;;;20.30;96.20;;;;;;5044992;28;20145;-72
2023/06/19 01:20:43;;;;;;;;;;;20.20;96.40;;;;;;5044556;28;19963;-72
2023/06/19 01:23:12;;;;;;;;;;;20.20;96.70;;;;;;5045060;28;19963;-73
2023/06/19 01:25:39;;;;;;;;;;;20.20;97.10;;;;;;5045036;28;20156;-73
2023/06/19 01:28:09;;;;;;;;;;;20.20;97.50;;;;;;5044761;28;20209;-72
2023/06/19 01:30:36;;;;;;;;;;;20.10;97.10;;;;;;5044511;28;19921;-73
2023/06/19 01:33:05;;;;;;;;;;;20.10;97.00;;;;;;5044820;28;19921;-73
2023/06/19 01:35:35;;;;;;;;;;;20.10;97.20;;;;;;5044734;28;19927;-72
2023/06/19 01:38:03;;;;;;;;;;;20.00;97.50;;;;;;5044709;28;19921;-74
2023/06/19 01:40:31;;;;;;;;;;;20.00;97.80;;;;;;5044229;28;19928;-74
2023/06/19 01:43:00;;;;;;;;;;;20.00;98.10;;;;;;5044811;28;20141;-74
2023/06/19 01:45:28;;;;;;;;;;;20.00;98.20;;;;;;5044500;28;19937;-75
2023/06/19 01:47:54;;;;;;;;;;;20.00;98.50;;;;;;5044651;28;19927;-75
2023/06/19 01:50:21;;;;;;;;;;;20.00;98.50;;;;;;5044106;28;19961;-74
2023/06/19 01:52:48;;;;;;;;;;;19.90;98.50;;;;;;5044569;28;19992;-74
2023/06/19 01:55:15;;;;;;;;;;;19.90;98.10;;;;;;5044126;28;19989;-74
2023/06/19 01:57:43;;;;;;;;;;;20.00;96.60;;;;;;5044667;28;20120;-75
2023/06/19 02:00:10;;;;;;;;;;;20.00;96.30;;;;;;5043575;28;20223;-74
2023/06/19 02:02:36;;;;;;;;;;;20.10;96.10;;;;;;5044366;28;19921;-75
2023/06/19 02:05:04;;;;;;;;;;;20.10;95.80;;;;;;5043810;28;20301;-75
2023/06/19 02:07:31;;;;;;;;;;;20.20;95.50;;;;;;5044379;28;19928;-74
2023/06/19 02:09:57;;;;;;;;;;;20.20;95.30;;;;;;5043915;28;20204;-75
2023/06/19 02:12:24;;;;;;;;;;;20.30;95.20;;;;;;5043479;28;19988;-75
2023/06/19 02:14:52;;;;;;;;;;;20.30;95.00;;;;;;5043605;28;20227;-74
2023/06/19 02:17:19;;;;;;;;;;;20.40;95.10;;;;;;5044214;28;19992;-74
2023/06/19 02:19:45;;;;;;;;;;;20.50;95.10;;;;;;5043818;28;19927;-74
2023/06/19 02:22:12;;;;;;;;;;;20.50;95.00;;;;;;5043276;28;19959;-73
2023/06/19 02:24:39;;;;;;;;;;;20.60;95.00;;;;;;5043497;28;20173;-74
2023/06/19 02:27:06;;;;;;;;;;;20.60;95.00;;;;;;5044105;28;19953;-74
2023/06/19 02:29:33;;;;;;;;;;;20.70;95.10;;;;;;5043556;28;19921;-74
2023/06/19 02:32:01;;;;;;;;;;;20.70;95.20;;;;;;5043436;28;19921;-75
2023/06/19 02:34:28;;;;;;;;;;;20.70;95.10;;;;;;5043832;28;19927;-75
2023/06/19 02:36:54;;;;;;;;;;;20.70;95.10;;;;;;5043837;28;19927;-75
2023/06/19 02:39:21;;;;;;;;;;;20.70;95.10;;;;;;5044057;28;20009;-74
2023/06/19 02:41:48;;;;;;;;;;;20.80;95.20;;;;;;5043112;28;20208;-75
2023/06/19 02:44:14;;;;;;;;;;;20.80;95.30;;;;;;5043404;28;19996;-74
2023/06/19 02:46:41;;;;;;;;;;;20.70;95.30;;;;;;5043784;28;20271;-74
2023/06/19 02:49:09;;;;;;;;;;;20.70;95.30;;;;;;5043500;28;20120;-75
2023/06/19 02:51:36;;;;;;;;;;;20.70;95.50;;;;;;5043153;28;19921;-75
2023/06/19 02:54:02;;;;;;;;;;;20.70;95.70;;;;;;5059626;22;19963;-72
2023/06/19 02:56:29;;;;;;;;;;;20.60;95.90;;;;;;5043216;28;19959;-74
2023/06/19 02:58:56;;;;;;;;;;;20.60;95.70;;;;;;5043533;28;19921;-74
2023/06/19 03:01:22;;;;;;;;;;;20.60;95.70;;;;;;5043269;28;19983;-73
2023/06/19 03:03:49;;;;;;;;;;;20.60;95.80;;;;;;5045601;28;20004;-74
2023/06/19 03:06:17;;;;;;;;;;;20.60;95.90;;;;;;5063521;28;19920;-74
2023/06/19 03:08:44;;;;;;;;;;;20.60;96.50;;;;;;5063299;28;19920;-72
2023/06/19 03:11:11;;;;;;;;;;;20.60;96.30;;;;;;5061563;28;19921;-73
2023/06/19 03:13:45;;;;;;;;;;;20.50;96.00;;;;;;5063301;28;19992;-73
2023/06/19 03:16:11;;;;;;;;;;;20.60;96.90;;;;;;5063092;28;19928;-74
2023/06/19 03:18:38;;;;;;;;;;;20.50;96.90;;;;;;5063492;28;19921;-74
2023/06/19 03:21:04;;;;;;;;;;;20.40;96.50;;;;;;5062923;28;19952;-73
2023/06/19 03:23:32;;;;;;;;;;;20.40;97.20;;;;;;5063158;28;20180;-73
2023/06/19 03:25:59;;;;;;;;;;;20.40;97.40;;;;;;5062727;28;19920;-74
2023/06/19 03:28:26;;;;;;;;;;;20.30;97.00;;;;;;5063023;28;19989;-74
2023/06/19 03:30:52;;;;;;;;;;;20.30;97.00;;;;;;5063011;28;20116;-71
2023/06/19 03:33:19;;;;;;;;;;;20.30;97.30;;;;;;5042941;28;19953;-73
2023/06/19 03:35:45;;;;;;;;;;;20.20;97.60;;;;;;5053972;28;19995;-74
2023/06/19 03:38:15;;;;;;;;;;;20.20;97.70;;;;;;5066976;28;20051;-72
2023/06/19 03:40:43;;;;;;;;;;;20.60;98.80;;;;;;5066095;28;20381;-73
2023/06/19 03:43:10;;;;;;;;;;;20.10;99.20;;;;;;5066933;28;19927;-73
2023/06/19 03:45:37;;;;;;;;;;;20.00;99.60;;;;;;5066461;28;19920;-73
2023/06/19 03:48:04;;;;;;;;;;;20.00;99.90;;;;;;5066632;28;20183;-73
2023/06/19 03:50:30;;;;;;;;;;;19.90;99.90;;;;;;5066502;28;19991;-74
2023/06/19 03:52:57;;;;;;;;;;;19.90;99.90;;;;;;5066284;28;20263;-74
2023/06/19 03:55:23;;;;;;;;;;;19.90;99.90;;;;;;5066040;28;19933;-73
2023/06/19 03:57:52;;;;;;;;;;;20.00;99.90;;;;;;5066620;28;19984;-74
2023/06/19 04:00:19;;;;;;;;;;;20.00;99.90;;;;;;5066398;28;19920;-72
2023/06/19 04:02:46;;;;;;;;;;;20.10;99.90;;;;;;5066526;28;19959;-73
2023/06/19 04:05:14;;;;;;;;;;;20.20;99.90;;;;;;5066493;28;20154;-74
2023/06/19 04:07:40;;;;;;;;;;;20.30;99.90;;;;;;5066549;28;20115;-74
2023/06/19 04:10:07;;;;;;;;;;;20.20;99.90;;;;;;5065874;28;19928;-74
2023/06/19 04:12:34;;;;;;;;;;;20.30;99.90;;;;;;5066330;28;20008;-74
2023/06/19 04:15:02;;;;;;;;;;;20.30;99.90;;;;;;5066020;28;20111;-74
2023/06/19 04:17:29;;;;;;;;;;;20.20;99.90;;;;;;5066142;28;19927;-74
2023/06/19 04:19:55;;;;;;;;;;;20.30;99.90;;;;;;5066191;28;19927;-74
2023/06/19 04:22:22;;;;;;;;;;;20.40;99.90;;;;;;5065650;28;20219;-74
2023/06/19 04:24:48;;;;;;;;;;;20.50;99.90;;;;;;5065552;28;19963;-73
2023/06/19 04:27:15;;;;;;;;;;;20.50;99.90;;;;;;5065890;28;20003;-73
2023/06/19 04:29:42;;;;;;;;;;;20.50;99.90;;;;;;5065758;28;19992;-75
2023/06/19 04:32:11;;;;;;;;;;;20.50;99.90;;;;;;5065426;28;19927;-74
2023/06/19 04:34:38;;;;;;;;;;;20.60;99.90;;;;;;5065654;28;19924;-74
2023/06/19 04:37:06;;;;;;;;;;;20.60;99.90;;;;;;5065684;28;19991;-71
2023/06/19 04:39:32;;;;;;;;;;;20.70;99.90;;;;;;5065394;28;20176;-73
2023/06/19 04:42:00;;;;;;;;;;;20.70;99.90;;;;;;5065291;28;19927;-71
2023/06/19 04:44:26;;;;;;;;;;;20.80;99.90;;;;;;5064883;28;20236;-70
2023/06/19 04:47:00;;;;;;;;;;;20.90;99.90;;;;;;5064961;28;19988;-71
2023/06/19 04:49:29;;;;;;;;;;;21.00;99.90;;;;;;5065338;28;19921;-71
2023/06/19 04:51:56;;;;;;;;;;;21.10;99.90;;;;;;5065575;28;19922;-71
2023/06/19 04:54:23;;;;;;;;;;;21.10;99.90;;;;;;5066749;28;19921;-70
2023/06/19 04:56:49;;;;;;;;;;;21.10;99.90;;;;;;5065782;28;19963;-72
2023/06/19 04:59:17;;;;;;;;;;;21.10;99.90;;;;;;5064892;28;19947;-72
2023/06/19 05:01:44;;;;;;;;;;;21.10;99.90;;;;;;5064641;28;20016;-71
2023/06/19 05:04:11;;;;;;;;;;;21.20;99.90;;;;;;5053747;28;20120;-71
2023/06/19 05:06:40;;;;;;;;;;;21.20;99.90;;;;;;5063251;28;19924;-71
2023/06/19 05:09:06;;;;;;;;;;;21.30;99.90;;;;;;5064798;28;19921;-70
2023/06/19 05:11:33;;;;;;;;;;;21.30;99.90;;;;;;5064666;28;19921;-70
2023/06/19 05:14:00;;;;;;;;;;;21.40;99.90;;;;;;5064693;28;19963;-70
2023/06/19 05:16:26;;;;;;;;;;;21.50;99.90;;;;;;5064934;28;19956;-70
2023/06/19 05:18:53;;;;;;;;;;;21.50;99.90;;;;;;5064567;28;19999;-70
2023/06/19 05:21:20;;;;;;;;;;;21.50;99.90;;;;;;5064148;28;20124;-70
2023/06/19 05:23:50;;;;;;;;;;;21.60;99.90;;;;;;5064429;28;19924;-70
2023/06/19 05:26:17;;;;;;;;;;;21.60;99.90;;;;;;5064474;28;19924;-70
2023/06/19 05:28:43;;;;;;;;;;;21.60;99.90;;;;;;5064574;28;19952;-70
2023/06/19 05:31:10;;;;;;;;;;;21.60;99.90;;;;;;5053979;28;19921;-71
2023/06/19 05:33:36;;;;;;;;;;;21.60;99.90;;;;;;5044670;28;19988;-71
2023/06/19 05:36:03;;;;;;;;;;;21.60;99.90;;;;;;5044537;28;20016;-71
2023/06/19 05:38:30;;;;;;;;;;;21.60;99.90;;;;;;5043878;28;19959;-71
2023/06/19 05:40:59;;;;;;;;;;;21.60;99.90;;;;;;5044108;28;19921;-72
2023/06/19 05:43:25;;;;;;;;;;;21.60;99.90;;;;;;5055739;28;20281;-72
2023/06/19 05:45:52;;;;;;;;;;;21.60;99.90;;;;;;5064229;28;19960;-71
2023/06/19 05:48:18;;;;;;;;;;;21.60;99.90;;;;;;5064422;28;19920;-71
2023/06/19 05:50:45;;;;;;;;;;;21.60;99.90;;;;;;5064019;28;19992;-72
2023/06/19 05:53:12;;;;;;;;;;;21.60;99.90;;;;;;5063963;28;19993;-72
2023/06/19 05:55:38;;;;;;;;;;;21.60;99.90;;;;;;5063827;28;19928;-71
2023/06/19 05:58:06;;;;;;;;;;;21.60;99.90;;;;;;5063337;28;19955;-72
2023/06/19 06:00:33;;;;;;;;;;;21.60;99.90;;;;;;5063167;28;19928;-72
2023/06/19 06:03:00;;;;;;;;;;;21.60;99.90;;;;;;5063845;28;20230;-71
2023/06/19 06:05:27;;;;;;;;;;;21.60;99.90;;;;;;5063966;28;19943;-71
2023/06/19 06:07:54;;;;;;;;;;;21.60;99.90;;;;;;5063990;28;19967;-71
2023/06/19 06:10:20;;;;;;;;;;;21.60;99.90;;;;;;5063634;28;20123;-72
2023/06/19 06:12:47;;;;;;;;;;;21.60;99.90;;;;;;5063767;28;19921;-71
2023/06/19 06:15:15;;;;;;;;;;;21.70;99.90;;;;;;5063644;28;19921;-71
2023/06/19 06:17:42;;;;;;;;;;;21.70;99.90;;;;;;5063765;28;19987;-70
2023/06/19 06:20:11;;;;;;;;;;;21.70;99.90;;;;;;5063118;28;19980;-70
2023/06/19 06:22:38;;;;;;;;;;;21.80;99.90;;;;;;5043546;28;19927;-72
2023/06/19 06:25:05;;;;;;;;;;;21.80;99.90;;;;;;5043694;28;19928;-70
2023/06/19 06:27:32;;;;;;;;;;;21.80;99.90;;;;;;5043650;28;19929;-72
2023/06/19 06:29:59;;;;;;;;;;;21.80;99.90;;;;;;5043789;28;19921;-71
2023/06/19 06:32:28;;;;;;;;;;;21.90;99.90;;;;;;5043591;28;20106;-71
2023/06/19 06:34:55;;;;;;;;;;;21.90;99.90;;;;;;5043480;28;19929;-71
2023/06/19 06:37:22;;;;;;;;;;;21.90;99.90;;;;;;5043751;28;19921;-71
2023/06/19 06:39:49;;;;;;;;;;;22.00;99.90;;;;;;5043749;28;19921;-71
2023/06/19 06:42:16;;;;;;;;;;;22.00;99.90;;;;;;5042966;28;19959;-71
2023/06/19 06:44:42;;;;;;;;;;;22.10;99.90;;;;;;5043080;28;19927;-72
2023/06/19 06:47:09;;;;;;;;;;;22.10;99.90;;;;;;5043698;28;19921;-71
2023/06/19 06:49:37;;;;;;;;;;;22.20;99.90;;;;;;5043494;28;19984;-71
2023/06/19 06:52:04;;;;;;;;;;;22.20;99.90;;;;;;5043230;28;19921;-71
2023/06/19 06:54:31;;;;;;;;;;;22.20;99.90;;;;;;5043184;28;19975;-71
2023/06/19 06:56:58;;;;;;;;;;;22.30;99.90;;;;;;5043154;28;20131;-71
2023/06/19 06:59:25;;;;;;;;;;;22.30;99.90;;;;;;5043445;28;19929;-71
2023/06/19 07:01:51;;;;;;;;;;;22.40;99.90;;;;;;5043066;28;19921;-71
2023/06/19 07:04:18;;;;;;;;;;;22.40;99.90;;;;;;5042851;28;19953;-71
2023/06/19 07:06:46;;;;;;;;;;;22.50;99.90;;;;;;5043217;28;19992;-71
2023/06/19 07:09:12;;;;;;;;;;;22.50;99.90;;;;;;5051406;28;19920;-71
2023/06/19 07:11:39;;;;;;;;;;;22.50;99.90;;;;;;5066812;28;19988;-71
2023/06/19 07:14:06;;;;;;;;;;;22.60;99.90;;;;;;5067032;28;20170;-71
2023/06/19 07:16:32;;;;;;;;;;;22.70;99.90;;;;;;5066502;28;19921;-73
2023/06/19 07:18:59;;;;;;;;;;;22.60;99.90;;;;;;5067021;28;19964;-71
2023/06/19 07:21:28;;;;;;;;;;;22.70;99.90;;;;;;5066708;28;19980;-71
2023/06/19 07:23:56;;;;;;;;;;;22.70;99.90;;;;;;5066884;28;19953;-71
2023/06/19 07:26:23;;;;;;;;;;;22.70;99.90;;;;;;5066680;28;20173;-70
2023/06/19 07:28:49;;;;;;;;;;;22.70;99.90;;;;;;5066818;28;20157;-71
2023/06/19 07:31:16;;;;;;;;;;;22.70;99.90;;;;;;5056431;28;20224;-71
2023/06/19 07:33:43;;;;;;;;;;;22.80;99.90;;;;;;5046566;28;19921;-71
2023/06/19 07:36:13;;;;;;;;;;;22.80;99.90;;;;;;5046908;28;19984;-71
2023/06/19 07:38:40;;;;;;;;;;;22.90;99.90;;;;;;5046808;28;19921;-71
2023/06/19 07:41:09;;;;;;;;;;;23.00;99.90;;;;;;5046217;28;19953;-71
2023/06/19 07:43:36;;;;;;;;;;;23.10;99.90;;;;;;5046779;28;20124;-71
2023/06/19 07:46:03;;;;;;;;;;;23.10;99.90;;;;;;5046200;28;19921;-71
2023/06/19 07:48:29;;;;;;;;;;;23.20;99.90;;;;;;5046147;28;19921;-70
2023/06/19 07:50:56;;;;;;;;;;;23.20;99.90;;;;;;5046039;28;19984;-72
2023/06/19 07:53:22;;;;;;;;;;;23.20;99.90;;;;;;5061798;28;20176;-74
2023/06/19 07:55:49;;;;;;;;;;;23.20;99.90;;;;;;5062603;28;19983;-73
2023/06/19 07:58:18;;;;;;;;;;;23.30;99.90;;;;;;5065888;28;19952;-73
2023/06/19 08:00:44;;;;;;;;;;;23.30;99.90;;;;;;5047091;28;19928;-73
2023/06/19 08:03:11;;;;;;;;;;;23.40;99.90;;;;;;5050018;28;19984;-74
2023/06/19 08:05:38;;;;;;;;;;;23.40;99.90;;;;;;5065715;28;20000;-73
2023/06/19 08:08:05;;;;;;;;;;;23.50;99.90;;;;;;5065471;28;20011;-73
2023/06/19 08:10:31;;;;;;;;;;;23.60;99.90;;;;;;5065445;28;20208;-73
2023/06/19 08:12:58;;;;;;;;;;;23.70;99.90;;;;;;5065191;28;19952;-73
2023/06/19 08:15:26;;;;;;;;;;;23.80;99.90;;;;;;5065500;28;19927;-73
2023/06/19 08:17:53;;;;;;;;;;;23.80;99.90;;;;;;5045850;28;19987;-73
2023/06/19 08:20:20;;;;;;;;;;;23.90;99.90;;;;;;5045073;28;19921;-74
2023/06/19 08:22:47;;;;;;;;;;;24.00;99.90;;;;;;5045889;28;20143;-73
2023/06/19 08:25:21;;;;;;;;;;;24.00;99.90;;;;;;5045933;28;19927;-73
2023/06/19 08:27:47;;;;;;;;;;;24.00;99.90;;;;;;5065496;28;20075;-74
2023/06/19 08:30:14;;;;;;;;;;;24.10;99.90;;;;;;5050109;28;20163;-73
2023/06/19 08:32:42;;;;;;;;;;;24.30;99.90;;;;;;5046175;28;19988;-73
2023/06/19 08:35:09;;;;;;;;;;;24.30;99.90;;;;;;5046177;28;19937;-74
2023/06/19 08:37:35;;;;;;;;;;;24.40;99.90;;;;;;5046218;28;19992;-74
2023/06/19 08:40:04;;;;;;;;;;;24.60;99.90;;;;;;5055343;28;20259;-76
2023/06/19 08:42:30;;;;;;;;;;;24.70;99.90;;;;;;5065735;28;19928;-73
2023/06/19 08:44:57;;;;;;;;;;;24.80;99.90;;;;;;5065824;28;19959;-74
2023/06/19 08:47:29;;;;;;;;;;;24.90;99.90;;;;;;5050216;28;19992;-73
2023/06/19 08:49:58;;;;;;;;;;;25.00;99.90;;;;;;5045970;28;19921;-74
2023/06/19 08:52:24;;;;;;;;;;;25.00;99.90;;;;;;5045287;28;20446;-73
2023/06/19 08:54:51;;;;;;;;;;;25.00;99.90;;;;;;5060407;28;19927;-73
2023/06/19 08:57:18;;;;;;;;;;;25.10;99.90;;;;;;5059331;28;19921;-75
2023/06/19 08:59:49;;;;;;;;;;;25.20;99.90;;;;;;5065598;28;19927;-74
2023/06/19 09:02:15;;;;;;;;;;;25.40;99.90;;;;;;5065462;28;19927;-74
2023/06/19 09:04:42;;;;;;;;;;;25.40;99.90;;;;;;5065051;28;20288;-74
2023/06/19 09:07:10;;;;;;;;;;;25.40;99.90;;;;;;5065502;28;19927;-73
2023/06/19 09:09:37;;;;;;;;;;;25.50;99.90;;;;;;5065156;28;20132;-74
2023/06/19 09:12:04;;;;;;;;;;;25.50;99.90;;;;;;5065230;28;19927;-74
2023/06/19 09:14:34;;;;;;;;;;;25.50;99.90;;;;;;5065237;28;19927;-73
2023/06/19 09:17:02;;;;;;;;;;;25.50;99.90;;;;;;5065322;28;19943;-74
2023/06/19 09:19:28;;;;;;;;;;;25.40;99.90;;;;;;5064857;28;19921;-73
2023/06/19 09:22:00;;;;;;;;;;;25.30;99.90;;;;;;5064730;28;19959;-74
2023/06/19 09:24:33;;;;;;;;;;;25.40;99.90;;;;;;5045072;28;19983;-74
2023/06/19 09:27:06;;;;;;;;;;;25.60;99.90;;;;;;5044820;28;19921;-74
2023/06/19 09:29:32;;;;;;;;;;;25.70;99.90;;;;;;5045097;28;20124;-74
2023/06/19 09:31:59;;;;;;;;;;;25.80;99.90;;;;;;5044796;28;19992;-74
2023/06/19 09:34:26;;;;;;;;;;;25.90;99.90;;;;;;5056159;28;19937;-74
2023/06/19 09:36:52;;;;;;;;;;;26.00;99.90;;;;;;5064885;28;19991;-74
2023/06/19 09:39:20;;;;;;;;;;;26.10;99.90;;;;;;5064924;28;19988;-74
2023/06/19 09:41:51;;;;;;;;;;;26.10;99.90;;;;;;5064465;28;20224;-74
2023/06/19 09:44:22;;;;;;;;;;;26.10;99.90;;;;;;5064379;28;20410;-72
2023/06/19 09:46:50;;;;;;;;;;;26.10;99.90;;;;;;5063914;28;19956;-75
2023/06/19 09:49:16;;;;;;;;;;;26.10;99.90;;;;;;5064328;28;19927;-75
2023/06/19 09:51:44;;;;;;;;;;;26.20;99.90;;;;;;5064219;28;19921;-75
2023/06/19 09:54:11;;;;;;;;;;;26.20;99.90;;;;;;5064161;28;19927;-75
2023/06/19 09:56:39;;;;;;;;;;;26.40;99.90;;;;;;5058000;28;20088;-74
2023/06/19 09:59:09;;;;;;;;;;;26.50;99.90;;;;;;5044361;28;19921;-75
2023/06/19 10:01:36;;;;;;;;;;;26.60;99.90;;;;;;5043891;28;20212;-70
2023/06/19 10:04:04;;;;;;;;;;;26.70;99.90;;;;;;5057472;28;19983;-73
2023/06/19 10:06:31;;;;;;;;;;;26.80;99.90;;;;;;5064312;28;20086;-73
2023/06/19 10:09:06;;;;;;;;;;;26.90;99.90;;;;;;5064120;28;19983;-74
2023/06/19 10:11:44;;;;;;;;;;;27.00;99.90;;;;;;5064122;28;19921;-74
2023/06/19 10:14:13;;;;;;;;;;;27.10;99.90;;;;;;5063730;28;19920;-73
2023/06/19 10:16:41;;;;;;;;;;;27.20;99.90;;;;;;5064140;28;19956;-74
2023/06/19 10:19:12;;;;;;;;;;;27.30;99.90;;;;;;5064255;28;19927;-74
2023/06/19 10:21:45;;;;;;;;;;;27.30;99.90;;;;;;5064032;28;20135;-74
2023/06/19 10:24:14;;;;;;;;;;;27.30;99.90;;;;;;5055680;28;20456;-73
2023/06/19 10:26:41;;;;;;;;;;;27.40;99.90;;;;;;5043969;28;19929;-73
2023/06/19 10:29:15;;;;;;;;;;;27.50;99.90;;;;;;5043866;28;20383;-74
2023/06/19 10:31:42;;;;;;;;;;;27.60;99.90;;;;;;5043752;28;19921;-73
2023/06/19 10:34:09;;;;;;;;;;;27.70;99.90;;;;;;5043498;28;19927;-73
2023/06/19 10:36:39;;;;;;;;;;;27.80;99.90;;;;;;5042858;28;19929;-73
2023/06/19 10:39:06;;;;;;;;;;;27.90;99.90;;;;;;5043614;28;19992;-73
2023/06/19 10:41:33;;;;;;;;;;;28.10;99.90;;;;;;5062930;28;19921;-73
2023/06/19 10:44:01;;;;;;;;;;;28.30;99.90;;;;;;5063084;28;19947;-72
2023/06/19 10:46:31;;;;;;;;;;;28.40;99.90;;;;;;5062828;28;20003;-73
2023/06/19 10:49:00;;;;;;;;;;;28.50;99.90;;;;;;5063363;28;20120;-73
2023/06/19 10:51:27;;;;;;;;;;;28.40;99.90;;;;;;5064481;28;19920;-73
2023/06/19 10:53:55;;;;;;;;;;;28.40;99.90;;;;;;5065735;28;19927;-73
2023/06/19 10:56:22;;;;;;;;;;;28.50;99.90;;;;;;5058810;28;19988;-72
2023/06/19 10:58:48;;;;;;;;;;;28.60;99.90;;;;;;5046560;28;19984;-72
2023/06/19 11:01:15;;;;;;;;;;;28.70;99.90;;;;;;5043213;28;19983;-73
2023/06/19 11:03:43;;;;;;;;;;;28.60;99.90;;;;;;5053785;28;19967;-73
2023/06/19 11:06:10;;;;;;;;;;;28.60;99.90;;;;;;5063463;28;19983;-73
2023/06/19 11:08:36;;;;;;;;;;;28.70;99.90;;;;;;5063456;28;20104;-73
2023/06/19 11:11:03;;;;;;;;;;;28.90;99.90;;;;;;5063054;28;19984;-73
2023/06/19 11:13:32;;;;;;;;;;;29.00;99.90;;;;;;5062990;28;19987;-73
2023/06/19 11:15:58;;;;;;;;;;;29.00;99.90;;;;;;5063567;28;20093;-72
2023/06/19 11:18:25;;;;;;;;;;;29.10;99.90;;;;;;5063557;28;19983;-74
2023/06/19 11:20:53;;;;;;;;;;;29.10;99.90;;;;;;5062755;28;19921;-73
2023/06/19 11:23:29;;;;;;;;;;;29.00;99.90;;;;;;5062449;28;19942;-73
2023/06/19 11:26:02;;;;;;;;;;;29.00;99.90;;;;;;5043454;28;19928;-73
2023/06/19 11:28:29;;;;;;;;;;;29.20;99.90;;;;;;5043408;28;19988;-72
2023/06/19 11:30:59;;;;;;;;;;;29.30;99.90;;;;;;5059760;28;19920;-73
2023/06/19 11:33:25;;;;;;;;;;;29.40;99.90;;;;;;5063077;28;19927;-72
2023/06/19 11:35:54;;;;;;;;;;;29.50;99.90;;;;;;5057650;28;19948;-72
2023/06/19 11:38:21;;;;;;;;;;;29.70;99.90;;;;;;5059188;28;19920;-72
2023/06/19 11:40:48;;;;;;;;;;;29.60;99.90;;;;;;5062935;28;19983;-73
2023/06/19 11:43:24;;;;;;;;;;;29.40;99.90;;;;;;5059358;28;19984;-73
2023/06/19 11:45:52;;;;;;;;;;;29.20;99.90;;;;;;5043110;28;19921;-72
2023/06/19 11:48:22;;;;;;;;;;;29.00;99.90;;;;;;5043007;28;19922;-72
2023/06/19 11:50:49;;;;;;;;;;;28.90;99.90;;;;;;5042668;28;19982;-72
2023/06/19 11:53:17;;;;;;;;;;;28.70;99.90;;;;;;5058987;28;19921;-72
2023/06/19 11:55:43;;;;;;;;;;;28.70;99.90;;;;;;5063090;28;19980;-72
2023/06/19 11:58:10;;;;;;;;;;;28.90;99.90;;;;;;5066652;28;19958;-73
2023/06/19 12:00:37;;;;;;;;;;;29.20;99.90;;;;;;5066213;28;19984;-73
2023/06/19 12:03:04;;;;;;;;;;;29.30;99.90;;;;;;5066212;28;19967;-73
2023/06/19 12:05:30;;;;;;;;;;;29.40;99.90;;;;;;5055159;28;19921;-72
2023/06/19 12:07:57;;;;;;;;;;;29.40;99.90;;;;;;5046460;28;19996;-72
2023/06/19 12:10:25;;;;;;;;;;;29.40;99.90;;;;;;5062373;28;20235;-73
2023/06/19 12:13:02;;;;;;;;;;;29.50;99.90;;;;;;5065829;28;19920;-72
2023/06/19 12:15:29;;;;;;;;;;;29.70;99.90;;;;;;5066164;28;19928;-73
2023/06/19 12:17:57;;;;;;;;;;;29.90;99.90;;;;;;5066421;28;19952;-72
2023/06/19 12:20:24;;;;;;;;;;;30.00;99.90;;;;;;5066064;28;19921;-72
2023/06/19 12:22:51;;;;;;;;;;;30.00;99.90;;;;;;5066236;28;20151;-73
2023/06/19 12:25:17;;;;;;;;;;;30.10;99.90;;;;;;5066199;28;19995;-72
2023/06/19 12:27:45;;;;;;;;;;;30.10;99.90;;;;;;5066158;28;19921;-73
2023/06/19 12:30:12;;;;;;;;;;;30.10;99.90;;;;;;5065532;28;19921;-73
2023/06/19 12:32:39;;;;;;;;;;;30.40;99.90;;;;;;5066109;28;19927;-73
2023/06/19 12:35:07;;;;;;;;;;;30.60;99.90;;;;;;5064765;28;19956;-73
2023/06/19 12:37:33;;;;;;;;;;;30.90;99.90;;;;;;5046097;28;19921;-73
2023/06/19 12:40:00;;;;;;;;;;;31.20;99.90;;;;;;5045965;28;19936;-73
2023/06/19 12:42:27;;;;;;;;;;;31.30;99.90;;;;;;5045898;28;19960;-73
2023/06/19 12:44:55;;;;;;;;;;;31.30;99.90;;;;;;5065076;28;20113;-72
2023/06/19 12:47:21;;;;;;;;;;;31.20;99.90;;;;;;5065240;28;19927;-72
2023/06/19 12:49:48;;;;;;;;;;;31.10;99.90;;;;;;5065395;28;19921;-73
2023/06/19 12:52:14;;;;;;;;;;;31.20;99.90;;;;;;5064553;28;20427;-73
2023/06/19 12:54:42;;;;;;;;;;;31.30;99.70;;;;;;5064174;28;19975;-72
2023/06/19 12:57:08;;;;;;;;;;;31.30;98.30;;;;;;5060091;28;19920;-73
2023/06/19 12:59:35;;;;;;;;;;;31.50;98.50;;;;;;5065273;28;19956;-73
2023/06/19 13:02:03;;;;;;;;;;;31.80;99.30;;;;;;5065179;28;19956;-73
2023/06/19 13:04:30;;;;;;;;;;;32.00;99.10;;;;;;5065177;28;19936;-73
2023/06/19 13:06:56;;;;;;;;;;;32.10;99.50;;;;;;5046804;28;20188;-73
2023/06/19 13:09:26;;;;;;;;;;;32.30;98.70;;;;;;5044976;28;19956;-73
2023/06/19 13:11:55;;;;;;;;;;;32.20;98.60;;;;;;5044787;28;19921;-73
2023/06/19 13:14:21;;;;;;;;;;;32.00;98.50;;;;;;5045145;28;19921;-73
2023/06/19 13:16:48;;;;;;;;;;;31.70;98.70;;;;;;5045212;28;20000;-73
2023/06/19 13:19:16;;;;;;;;;;;31.70;98.10;;;;;;5044951;28;19983;-74
2023/06/19 13:21:43;;;;;;;;;;;31.80;97.80;;;;;;5044985;28;19998;-73
2023/06/19 13:24:09;;;;;;;;;;;31.80;97.50;;;;;;5049038;28;19921;-73
2023/06/19 13:26:36;;;;;;;;;;;31.70;97.10;;;;;;5065006;28;19927;-73
2023/06/19 13:29:02;;;;;;;;;;;31.60;96.90;;;;;;5065042;28;19964;-73
2023/06/19 13:31:29;;;;;;;;;;;31.60;97.20;;;;;;5064727;28;19921;-74
2023/06/19 13:33:56;;;;;;;;;;;31.80;97.40;;;;;;5064511;28;19927;-73
2023/06/19 13:36:26;;;;;;;;;;;31.90;96.90;;;;;;5051278;28;19984;-73
2023/06/19 13:38:53;;;;;;;;;;;31.80;96.70;;;;;;5048807;28;19979;-73
2023/06/19 13:41:20;;;;;;;;;;;31.90;97.40;;;;;;5064210;28;19920;-74
2023/06/19 13:43:47;;;;;;;;;;;31.90;97.30;;;;;;5064648;28;19921;-73
2023/06/19 13:46:14;;;;;;;;;;;31.90;97.50;;;;;;5064697;28;19963;-73
2023/06/19 13:48:40;;;;;;;;;;;32.10;96.40;;;;;;5064473;28;19921;-73
2023/06/19 13:51:07;;;;;;;;;;;32.20;96.50;;;;;;5064004;28;20176;-71
2023/06/19 13:53:37;;;;;;;;;;;32.00;97.00;;;;;;5064323;28;19920;-74
2023/06/19 13:56:04;;;;;;;;;;;31.70;96.70;;;;;;5063887;28;19921;-73
2023/06/19 13:58:31;;;;;;;;;;;31.50;96.90;;;;;;5063768;28;20227;-73
2023/06/19 14:00:58;;;;;;;;;;;31.40;97.70;;;;;;5063161;28;19955;-73
2023/06/19 14:03:25;;;;;;;;;;;31.10;97.70;;;;;;5063121;28;20097;-72
2023/06/19 14:05:51;;;;;;;;;;;30.90;98.10;;;;;;5052042;28;19924;-71
2023/06/19 14:08:18;;;;;;;;;;;30.70;98.20;;;;;;5054622;28;19921;-72
2023/06/19 14:10:46;;;;;;;;;;;30.70;98.70;;;;;;5063479;28;19952;-72
2023/06/19 14:13:14;;;;;;;;;;;30.70;98.70;;;;;;5062470;28;19920;-72
2023/06/19 14:15:40;;;;;;;;;;;31.00;98.30;;;;;;5063458;28;19929;-72
2023/06/19 14:18:07;;;;;;;;;;;31.20;97.60;;;;;;5063320;28;19928;-72